Time;durP1;ratioP1;P1;durP2;ratioP2;P2;SDS_P1;SDS_P2;PMS_P1;PMS_P2;Temp;Humidity;BMP_temperature;BMP_pressure;BME280_temperature;BME280_humidity;BME280_pressure;Samples;Min_cycle;Max_cycle;Signal;HPM_P1;HPM_P2
2022/10/16 00:09:29;;;;;;;3.93;1.63;;;13.10;99.90;;;;;;21075803;28;20043;-78
2022/10/16 00:19:29;;;;;;;17.87;5.50;;;13.10;99.90;;;;;;21074980;28;20071;-78
2022/10/16 00:29:30;;;;;;;4.03;2.83;;;13.20;99.90;;;;;;21074580;28;20036;-78
2022/10/16 00:39:31;;;;;;;6.93;3.28;;;13.10;99.90;;;;;;21074312;28;20044;-77
2022/10/16 00:49:32;;;;;;;9.47;3.60;;;13.00;99.90;;;;;;21055743;28;20039;-77
2022/10/16 00:59:39;;;;;;;11.00;3.10;;;13.10;99.90;;;;;;21073471;28;20036;-77
2022/10/16 01:09:52;;;;;;;3.92;2.30;;;13.20;99.90;;;;;;21073065;28;20494;-78
2022/10/16 01:20:28;;;;;;;11.38;2.95;;;13.30;99.90;;;;;;21054747;28;20040;-78
2022/10/16 01:40:50;;;;;;;6.57;2.92;;;13.20;99.90;;;;;;21167703;28;20058;-79
2022/10/16 01:51:08;;;;;;;7.63;3.10;;;13.10;99.90;;;;;;21166340;28;20062;-82
2022/10/16 02:01:13;;;;;;;7.22;2.85;;;13.00;99.90;;;;;;21154498;28;20142;-81
2022/10/16 02:11:14;;;;;;;10.30;3.00;;;13.00;99.90;;;;;;21145811;28;20058;-81
2022/10/16 02:21:28;;;;;;;9.63;3.60;;;12.90;99.90;;;;;;21155756;28;20036;-81
2022/10/16 02:31:34;;;;;;;7.55;3.60;;;12.90;99.90;;;;;;21172021;28;20413;-80
2022/10/16 02:41:35;;;;;;;8.32;3.63;;;12.90;99.90;;;;;;21152972;28;20429;-81
2022/10/16 02:51:35;;;;;;;5.77;2.83;;;12.90;99.90;;;;;;21170278;28;20040;-80
2022/10/16 03:01:36;;;;;;;5.33;1.87;;;12.80;99.90;;;;;;21168936;28;20148;-81
2022/10/16 03:11:37;;;;;;;7.07;1.30;;;12.80;99.90;;;;;;21150724;28;20112;-81
2022/10/16 03:21:38;;;;;;;5.57;1.67;;;12.80;99.90;;;;;;21077414;28;20094;-81
2022/10/16 03:31:39;;;;;;;5.90;2.10;;;12.80;99.90;;;;;;21064758;28;20417;-81
2022/10/16 03:41:39;;;;;;;4.43;1.83;;;12.80;99.90;;;;;;21082777;28;20111;-81
2022/10/16 03:51:40;;;;;;;5.47;2.40;;;12.80;99.90;;;;;;21080852;28;20043;-81
2022/10/16 04:01:41;;;;;;;4.90;2.07;;;12.90;99.90;;;;;;21062636;28;20498;-81
2022/10/16 04:11:42;;;;;;;7.97;2.30;;;12.90;99.90;;;;;;21061729;28;20044;-81
2022/10/16 04:21:42;;;;;;;6.40;2.50;;;12.90;99.90;;;;;;21079586;28;20679;-81
2022/10/16 04:31:43;;;;;;;6.97;2.57;;;12.90;99.90;;;;;;21059242;28;20039;-81
2022/10/16 04:41:44;;;;;;;9.00;3.00;;;12.90;99.90;;;;;;21108081;28;20089;-81
2022/10/16 04:51:45;;;;;;;10.77;3.50;;;12.80;99.90;;;;;;21142862;28;20489;-80
2022/10/16 05:01:45;;;;;;;9.50;3.13;;;12.50;99.90;;;;;;21160619;28;20555;-80
2022/10/16 05:11:46;;;;;;;8.97;3.40;;;12.50;99.90;;;;;;21142288;28;20032;-80
2022/10/16 05:21:47;;;;;;;5.70;2.80;;;12.60;99.90;;;;;;21142263;28;20040;-81
2022/10/16 05:31:51;;;;;;;4.37;2.50;;;12.70;99.90;;;;;;21140816;28;20042;-81
2022/10/16 05:41:52;;;;;;;9.25;3.03;;;12.70;99.90;;;;;;21158605;28;20043;-81
2022/10/16 05:51:52;;;;;;;4.37;3.03;;;12.50;99.90;;;;;;21156154;28;20379;-80
2022/10/16 06:01:53;;;;;;;3.27;2.30;;;12.50;99.90;;;;;;21173795;28;20409;-80
2022/10/16 06:11:54;;;;;;;8.73;2.10;;;12.50;99.90;;;;;;21155206;28;20118;-81
2022/10/16 06:21:57;;;;;;;7.90;2.33;;;12.60;99.90;;;;;;21172328;28;20485;-81
2022/10/16 06:31:58;;;;;;;12.50;2.28;;;12.60;99.90;;;;;;21170861;28;20040;-81
2022/10/16 06:41:59;;;;;;;5.67;2.70;;;12.70;99.90;;;;;;21171534;28;20047;-80
2022/10/16 06:52:06;;;;;;;6.57;2.88;;;12.60;99.90;;;;;;21150416;28;20047;-79
2022/10/16 07:02:09;;;;;;;4.43;2.23;;;13.20;99.90;;;;;;21170676;28;20475;-79
2022/10/16 07:12:10;;;;;;;8.32;2.38;;;14.40;99.90;;;;;;21190561;28;20039;-79
2022/10/16 07:22:11;;;;;;;7.60;2.23;;;15.30;99.90;;;;;;21171494;28;20523;-80
2022/10/16 07:32:12;;;;;;;6.10;1.70;;;16.40;99.90;;;;;;21172487;22;20044;-79
2022/10/16 07:42:13;;;;;;;4.23;1.60;;;17.10;99.90;;;;;;21064721;28;20058;-78
2022/10/16 07:52:13;;;;;;;2.97;1.80;;;18.00;99.90;;;;;;21070941;28;20405;-77
2022/10/16 08:02:14;;;;;;;5.90;1.80;;;18.50;99.90;;;;;;21083199;28;20468;-78
2022/10/16 08:12:15;;;;;;;6.47;2.13;;;18.10;99.90;;;;;;21130805;28;20063;-77
2022/10/16 08:22:16;;;;;;;6.83;2.23;;;18.30;99.90;;;;;;21160967;28;20066;-77
2022/10/16 08:32:16;;;;;;;3.90;1.83;;;18.70;99.90;;;;;;21124735;28;20065;-77
2022/10/16 08:42:34;;;;;;;12.87;2.53;;;19.00;99.90;;;;;;21083909;28;20036;-76
2022/10/16 08:52:40;;;;;;;4.03;2.10;;;19.40;99.90;;;;;;21077647;28;20036;-75
2022/10/16 09:03:22;;;;;;;5.53;2.67;;;19.60;99.90;;;;;;21077145;28;20093;-77
2022/10/16 09:13:36;;;;;;;4.10;2.10;;;20.00;99.90;;;;;;21088686;28;20097;-79
2022/10/16 09:23:37;;;;;;;5.20;1.70;;;20.60;99.90;;;;;;21118195;28;20236;-78
2022/10/16 09:33:40;;;;;;;2.33;1.88;;;20.00;99.90;;;;;;21094266;28;20044;-78
2022/10/16 09:44:01;;;;;;;6.10;1.80;;;21.30;99.90;;;;;;21076887;28;20046;-77
2022/10/16 09:54:08;;;;;;;2.95;1.60;;;20.10;99.90;;;;;;21080917;28;20039;-76
2022/10/16 10:04:10;;;;;;;3.25;2.05;;;20.90;99.90;;;;;;21123159;28;20032;-74
2022/10/16 10:14:38;;;;;;;9.43;1.80;;;21.10;99.90;;;;;;21089925;28;20044;-74
2022/10/16 10:24:39;;;;;;;5.85;1.63;;;20.70;99.90;;;;;;21085819;28;20032;-74
2022/10/16 10:34:52;;;;;;;2.20;1.90;;;21.70;99.90;;;;;;21084579;28;20035;-74
2022/10/16 10:45:17;;;;;;;4.55;1.52;;;22.10;99.90;;;;;;21052697;28;20056;-73
2022/10/16 10:55:19;;;;;;;3.63;1.60;;;21.80;99.90;;;;;;21061623;28;20046;-74
2022/10/16 11:05:40;;;;;;;3.97;1.38;;;23.40;99.90;;;;;;21054411;28;20600;-72
2022/10/16 11:15:44;;;;;;;1.87;1.17;;;23.50;99.90;;;;;;21037948;28;20094;-73
2022/10/16 11:25:46;;;;;;;2.20;1.30;;;23.90;99.90;;;;;;21036926;28;20058;-73
2022/10/16 11:36:04;;;;;;;2.40;1.65;;;25.30;99.90;;;;;;21030827;28;20448;-73
2022/10/16 11:46:15;;;;;;;7.18;1.30;;;24.70;99.90;;;;;;21004584;28;20093;-73
2022/10/16 11:56:18;;;;;;;4.47;1.40;;;24.10;99.90;;;;;;21031970;28;20051;-75
2022/10/16 12:06:31;;;;;;;5.90;1.50;;;24.40;99.90;;;;;;21069166;28;20059;-74
2022/10/16 12:16:39;;;;;;;3.93;1.40;;;24.30;99.90;;;;;;21249072;27;20130;-73
2022/10/16 12:26:44;;;;;;;4.00;1.50;;;24.00;99.90;;;;;;21146511;28;20024;-74
2022/10/16 12:36:45;;;;;;;6.63;1.23;;;23.90;99.90;;;;;;21145815;28;20024;-73
2022/10/16 12:46:46;;;;;;;2.70;1.20;;;23.80;99.90;;;;;;21147751;28;20447;-73
2022/10/16 12:57:19;;;;;;;2.97;1.50;;;24.50;99.90;;;;;;21147563;28;20027;-73
2022/10/16 13:07:41;;;;;;;5.18;1.45;;;25.20;99.90;;;;;;21124226;28;20093;-73
2022/10/16 13:18:03;;;;;;;6.32;1.48;;;25.00;99.90;;;;;;21143798;28;20027;-73
2022/10/16 13:28:07;;;;;;;4.55;1.52;;;24.90;99.90;;;;;;21085842;28;20093;-73
2022/10/16 13:38:13;;;;;;;3.17;1.15;;;24.80;99.90;;;;;;21019466;22;20181;-77
2022/10/16 13:48:14;;;;;;;5.03;1.50;;;25.10;99.90;;;;;;21031503;28;20043;-77
2022/10/16 13:58:15;;;;;;;2.55;1.20;;;25.50;99.90;;;;;;21083759;28;20032;-76
2022/10/16 14:08:16;;;;;;;5.60;1.00;;;25.30;99.90;;;;;;21082204;28;20028;-76
2022/10/16 14:18:23;;;;;;;2.15;0.80;;;26.20;99.90;;;;;;21081445;28;20371;-76
2022/10/16 14:28:24;;;;;;;2.75;0.80;;;27.00;99.90;;;;;;21062348;28;20051;-76
2022/10/16 14:38:25;;;;;;;6.30;0.93;;;27.70;99.90;;;;;;21078714;28;20036;-77
2022/10/16 14:48:26;;;;;;;13.82;1.58;;;27.00;99.90;;;;;;21078824;28;20038;-76
2022/10/16 14:58:27;;;;;;;5.00;1.00;;;26.70;99.90;;;;;;21081226;28;20056;-78
2022/10/16 15:08:27;;;;;;;10.27;1.20;;;26.20;99.90;;;;;;21086170;28;20032;-77
2022/10/16 15:18:28;;;;;;;3.87;1.17;;;24.50;99.90;;;;;;21085290;28;20050;-78
2022/10/16 15:28:30;;;;;;;2.38;1.17;;;25.20;99.90;;;;;;21067833;28;20718;-78
2022/10/16 15:38:31;;;;;;;5.87;1.00;;;24.90;99.90;;;;;;21001092;28;20051;-78
2022/10/16 15:48:32;;;;;;;1.27;0.93;;;24.00;99.90;;;;;;21063621;28;20046;-78
2022/10/16 15:58:34;;;;;;;5.07;1.20;;;23.00;99.90;;;;;;21018107;28;20030;-80
2022/10/16 16:08:35;;;;;;;8.80;1.08;;;22.30;99.90;;;;;;21047758;28;20073;-80
2022/10/16 16:18:36;;;;;;;10.68;3.35;;;21.10;99.90;;;;;;21026270;28;20032;-82
2022/10/16 16:28:37;;;;;;;5.53;1.70;;;19.80;99.90;;;;;;21049997;28;20040;-81
2022/10/16 16:38:38;;;;;;;7.70;1.25;;;19.90;99.90;;;;;;21009570;28;20036;-82
2022/10/16 16:48:39;;;;;;;5.00;2.70;;;19.90;99.90;;;;;;21029619;28;20448;-82
2022/10/16 16:58:40;;;;;;;4.53;1.63;;;20.00;99.90;;;;;;21079831;28;20032;-80
2022/10/16 17:08:42;;;;;;;11.53;4.20;;;18.60;99.90;;;;;;21052106;28;20120;-81
2022/10/16 17:18:43;;;;;;;10.25;2.10;;;18.90;99.90;;;;;;21078118;28;20038;-80
2022/10/16 17:28:44;;;;;;;8.77;1.53;;;18.90;99.90;;;;;;21083730;28;20060;-80
2022/10/16 17:38:45;;;;;;;4.57;2.63;;;18.80;99.90;;;;;;21019000;28;20127;-80
2022/10/16 17:48:48;;;;;;;;;;;18.60;99.90;;;;;;21078119;28;20497;-80
2022/10/16 17:58:50;;;;;;;4.40;1.70;;;18.30;99.90;;;;;;21037183;28;19916;-81
2022/10/16 18:08:53;;;;;;;3.25;1.55;;;17.40;99.90;;;;;;21044394;28;20028;-81
2022/10/16 18:18:58;;;;;;;16.33;3.70;;;16.70;99.90;;;;;;21056138;28;20036;-80
2022/10/16 18:28:59;;;;;;;10.13;1.50;;;17.00;99.90;;;;;;21037320;28;20482;-80
2022/10/16 18:39:03;;;;;;;;;;;17.10;99.90;;;;;;21041532;28;20043;-79
2022/10/16 18:49:04;;;;;;;3.70;2.15;;;17.10;99.90;;;;;;21028550;28;19911;-80
2022/10/16 18:59:07;;;;;;;9.57;1.92;;;17.00;99.90;;;;;;21035466;28;20446;-81
2022/10/16 19:09:09;;;;;;;6.78;2.05;;;16.20;99.90;;;;;;21049148;28;20023;-79
2022/10/16 19:19:17;;;;;;;6.97;2.13;;;15.70;99.90;;;;;;21037153;28;20032;-80
2022/10/16 19:29:18;;;;;;;8.35;1.48;;;16.00;99.90;;;;;;21054575;28;20054;-80
2022/10/16 19:39:18;;;;;;;7.70;1.80;;;15.90;99.90;;;;;;21080138;22;20040;-79
2022/10/16 19:49:20;;;;;;;12.13;1.70;;;15.40;99.90;;;;;;20980770;28;20422;-76
2022/10/16 19:59:21;;;;;;;7.25;1.70;;;15.40;99.90;;;;;;20949582;28;20252;-76
2022/10/16 20:09:22;;;;;;;10.97;1.87;;;15.00;99.90;;;;;;20946802;28;20052;-76
2022/10/16 20:19:23;;;;;;;14.27;2.20;;;14.80;99.90;;;;;;20931324;28;20025;-75
2022/10/16 20:29:24;;;;;;;10.10;2.37;;;14.70;99.90;;;;;;20942640;28;20675;-76
2022/10/16 20:39:25;;;;;;;7.77;2.10;;;14.40;99.90;;;;;;20990786;28;20482;-76
2022/10/16 20:49:27;;;;;;;11.23;2.00;;;14.40;99.90;;;;;;20944759;28;20071;-75
2022/10/16 20:59:28;;;;;;;10.25;2.25;;;14.20;99.90;;;;;;20943005;28;20024;-76
2022/10/16 21:09:29;;;;;;;7.77;2.30;;;14.00;99.90;;;;;;20959021;28;20025;-76
2022/10/16 21:19:31;;;;;;;10.27;2.20;;;13.70;99.90;;;;;;20941296;28;20430;-75
2022/10/16 21:29:32;;;;;;;6.18;2.47;;;13.60;99.90;;;;;;20958856;28;20036;-76
2022/10/16 21:39:33;;;;;;;4.20;2.03;;;13.60;99.90;;;;;;20957114;28;20079;-75
2022/10/16 21:49:33;;;;;;;5.53;2.03;;;13.60;99.90;;;;;;20922986;28;20033;-76
2022/10/16 21:59:34;;;;;;;6.60;2.20;;;13.60;99.90;;;;;;20943371;28;20443;-76
2022/10/16 22:09:35;;;;;;;9.63;2.43;;;13.50;99.90;;;;;;20940554;28;20029;-76
2022/10/16 22:19:36;;;;;;;13.53;2.17;;;13.70;99.90;;;;;;20945951;28;20487;-76
2022/10/16 22:29:36;;;;;;;4.70;2.60;;;13.70;99.90;;;;;;20914016;28;20029;-76
2022/10/16 22:39:37;;;;;;;6.93;2.33;;;13.80;99.90;;;;;;20913054;28;20075;-76
2022/10/16 22:49:38;;;;;;;7.67;2.03;;;13.80;99.90;;;;;;20911869;28;20029;-76
2022/10/16 22:59:39;;;;;;;4.70;1.87;;;13.70;99.90;;;;;;20910633;28;20372;-76
2022/10/16 23:09:40;;;;;;;11.03;2.10;;;13.70;99.90;;;;;;20910161;28;20029;-76
2022/10/16 23:19:40;;;;;;;10.50;2.30;;;13.60;99.90;;;;;;20891990;28;20037;-76
2022/10/16 23:29:41;;;;;;;8.13;2.17;;;13.50;99.90;;;;;;20874829;28;20625;-77
2022/10/16 23:39:42;;;;;;;11.07;3.73;;;13.50;99.90;;;;;;20959940;28;20036;-76
2022/10/16 23:49:43;;;;;;;2.87;1.60;;;13.40;99.90;;;;;;21074518;28;20024;-76
2022/10/16 23:59:43;;;;;;;2.43;1.70;;;13.20;99.90;;;;;;21073807;28;20039;-76
